sensor_id;sensor_type;location;lat;lon;timestamp;pressure;altitude;pressure_sealevel;temperature;humidity
20942;BME280;10630;53.734;10.282;2023-03-01T00:01:56;102810.00;;;5.74;53.85
20942;BME280;10630;53.734;10.282;2023-03-01T00:04:23;102793.25;;;5.74;53.79
20942;BME280;10630;53.734;10.282;2023-03-01T00:06:50;102800.75;;;5.65;53.52
20942;BME280;10630;53.734;10.282;2023-03-01T00:09:17;102788.16;;;5.70;53.56
20942;BME280;10630;53.734;10.282;2023-03-01T00:11:44;102791.06;;;5.66;53.63
20942;BME280;10630;53.734;10.282;2023-03-01T00:14:11;102797.22;;;5.49;53.91
20942;BME280;10630;53.734;10.282;2023-03-01T00:16:39;102796.78;;;5.41;54.24
20942;BME280;10630;53.734;10.282;2023-03-01T00:19:07;102795.47;;;5.49;54.33
20942;BME280;10630;53.734;10.282;2023-03-01T00:21:33;102794.59;;;5.49;54.54
20942;BME280;10630;53.734;10.282;2023-03-01T00:24:02;102793.06;;;5.45;54.76
20942;BME280;10630;53.734;10.282;2023-03-01T00:26:29;102799.38;;;5.58;54.86
20942;BME280;10630;53.734;10.282;2023-03-01T00:28:56;102799.38;;;5.58;54.36
20942;BME280;10630;53.734;10.282;2023-03-01T00:31:24;102803.63;;;5.45;54.16
20942;BME280;10630;53.734;10.282;2023-03-01T00:33:58;102809.16;;;5.56;54.43
20942;BME280;10630;53.734;10.282;2023-03-01T00:36:26;102797.81;;;5.38;54.12
20942;BME280;10630;53.734;10.282;2023-03-01T00:38:54;102796.19;;;5.35;54.37
20942;BME280;10630;53.734;10.282;2023-03-01T00:41:21;102795.13;;;5.55;54.55
20942;BME280;10630;53.734;10.282;2023-03-01T00:43:53;102789.50;;;5.62;54.17
20942;BME280;10630;53.734;10.282;2023-03-01T00:46:20;102784.75;;;5.68;53.79
20942;BME280;10630;53.734;10.282;2023-03-01T00:48:48;102793.75;;;5.64;53.38
20942;BME280;10630;53.734;10.282;2023-03-01T00:51:17;102804.41;;;5.47;53.66
20942;BME280;10630;53.734;10.282;2023-03-01T00:53:45;102795.41;;;5.33;54.85
20942;BME280;10630;53.734;10.282;2023-03-01T00:56:12;102797.22;;;5.49;55.36
20942;BME280;10630;53.734;10.282;2023-03-01T00:58:39;102782.16;;;5.51;55.22
20942;BME280;10630;53.734;10.282;2023-03-01T01:01:10;102790.88;;;5.53;55.41
20942;BME280;10630;53.734;10.282;2023-03-01T01:03:44;102788.38;;;5.50;54.61
20942;BME280;10630;53.734;10.282;2023-03-01T01:06:18;102781.28;;;5.34;54.94
20942;BME280;10630;53.734;10.282;2023-03-01T01:08:45;102777.19;;;5.29;55.06
20942;BME280;10630;53.734;10.282;2023-03-01T01:11:12;102782.16;;;5.51;54.72
20942;BME280;10630;53.734;10.282;2023-03-01T01:13:40;102780.88;;;5.58;54.34
20942;BME280;10630;53.734;10.282;2023-03-01T01:16:07;102782.66;;;5.42;54.27
20942;BME280;10630;53.734;10.282;2023-03-01T01:18:34;102777.69;;;5.35;54.27
20942;BME280;10630;53.734;10.282;2023-03-01T01:21:05;102773.44;;;5.33;54.30
20942;BME280;10630;53.734;10.282;2023-03-01T01:23:32;102768.84;;;5.36;54.19
20942;BME280;10630;53.734;10.282;2023-03-01T01:26:03;102768.31;;;5.30;54.63
20942;BME280;10630;53.734;10.282;2023-03-01T01:28:30;102764.81;;;5.29;54.54
20942;BME280;10630;53.734;10.282;2023-03-01T01:30:56;102768.50;;;5.27;54.72
20942;BME280;10630;53.734;10.282;2023-03-01T01:33:23;102755.53;;;5.22;54.90
20942;BME280;10630;53.734;10.282;2023-03-01T01:35:49;102764.53;;;5.18;54.70
20942;BME280;10630;53.734;10.282;2023-03-01T01:38:16;102753.50;;;5.27;54.32
20942;BME280;10630;53.734;10.282;2023-03-01T01:40:46;102746.59;;;5.25;54.35
20942;BME280;10630;53.734;10.282;2023-03-01T01:43:19;102743.41;;;5.18;54.31
20942;BME280;10630;53.734;10.282;2023-03-01T01:45:46;102744.97;;;5.22;54.34
20942;BME280;10630;53.734;10.282;2023-03-01T01:48:19;102746.81;;;5.20;54.36
20942;BME280;10630;53.734;10.282;2023-03-01T01:50:48;102732.03;;;5.33;54.52
20942;BME280;10630;53.734;10.282;2023-03-01T01:53:17;102736.34;;;5.18;54.40
20942;BME280;10630;53.734;10.282;2023-03-01T01:55:47;102734.16;;;5.27;54.52
20942;BME280;10630;53.734;10.282;2023-03-01T01:58:17;102734.41;;;5.22;54.37
20942;BME280;10630;53.734;10.282;2023-03-01T02:00:43;102734.81;;;5.14;54.30
20942;BME280;10630;53.734;10.282;2023-03-01T02:03:11;102742.38;;;5.04;54.62
20942;BME280;10630;53.734;10.282;2023-03-01T02:05:45;102745.38;;;5.14;54.43
20942;BME280;10630;53.734;10.282;2023-03-01T02:08:20;102740.31;;;5.10;54.66
20942;BME280;10630;53.734;10.282;2023-03-01T02:10:48;102734.41;;;5.22;54.34
20942;BME280;10630;53.734;10.282;2023-03-01T02:13:17;102739.69;;;5.22;54.12
20942;BME280;10630;53.734;10.282;2023-03-01T02:15:43;102726.94;;;5.30;53.83
20942;BME280;10630;53.734;10.282;2023-03-01T02:18:12;102723.50;;;5.28;53.73
20942;BME280;10630;53.734;10.282;2023-03-01T02:20:50;102723.84;;;5.22;53.66
20942;BME280;10630;53.734;10.282;2023-03-01T02:23:20;102721.28;;;5.20;53.65
20942;BME280;10630;53.734;10.282;2023-03-01T02:26:05;102725.72;;;5.20;53.56
20942;BME280;10630;53.734;10.282;2023-03-01T02:28:35;102718.66;;;5.20;53.95
20942;BME280;10630;53.734;10.282;2023-03-01T02:31:02;102719.75;;;5.16;53.86
20942;BME280;10630;53.734;10.282;2023-03-01T02:33:48;102715.69;;;4.93;53.75
20942;BME280;10630;53.734;10.282;2023-03-01T02:36:17;102711.16;;;4.95;54.53
20942;BME280;10630;53.734;10.282;2023-03-01T02:38:45;102716.66;;;5.08;54.49
20942;BME280;10630;53.734;10.282;2023-03-01T02:41:14;102711.03;;;5.14;54.27
20942;BME280;10630;53.734;10.282;2023-03-01T02:43:41;102707.00;;;4.91;54.18
20942;BME280;10630;53.734;10.282;2023-03-01T02:46:15;102705.75;;;4.98;54.18
20942;BME280;10630;53.734;10.282;2023-03-01T02:48:43;102700.94;;;4.89;54.69
20942;BME280;10630;53.734;10.282;2023-03-01T02:51:14;102703.75;;;4.86;54.78
20942;BME280;10630;53.734;10.282;2023-03-01T02:53:49;102700.56;;;4.97;54.72
20942;BME280;10630;53.734;10.282;2023-03-01T02:56:20;102701.88;;;4.88;54.99
20942;BME280;10630;53.734;10.282;2023-03-01T02:58:48;102698.66;;;4.65;55.02
20942;BME280;10630;53.734;10.282;2023-03-01T03:01:19;102697.22;;;4.93;55.25
20942;BME280;10630;53.734;10.282;2023-03-01T03:03:46;102698.94;;;4.94;54.88
20942;BME280;10630;53.734;10.282;2023-03-01T03:06:13;102699.88;;;4.93;54.62
20942;BME280;10630;53.734;10.282;2023-03-01T03:08:39;102701.03;;;4.87;54.84
20942;BME280;10630;53.734;10.282;2023-03-01T03:11:06;102701.00;;;5.05;54.61
20942;BME280;10630;53.734;10.282;2023-03-01T03:13:33;102705.94;;;5.11;54.58
20942;BME280;10630;53.734;10.282;2023-03-01T03:16:00;102705.59;;;5.01;54.42
20942;BME280;10630;53.734;10.282;2023-03-01T03:18:30;102709.50;;;4.94;54.44
20942;BME280;10630;53.734;10.282;2023-03-01T03:20:57;102705.41;;;5.04;55.14
20942;BME280;10630;53.734;10.282;2023-03-01T03:23:24;102703.22;;;5.13;55.38
20942;BME280;10630;53.734;10.282;2023-03-01T03:25:52;102699.78;;;5.11;55.52
20942;BME280;10630;53.734;10.282;2023-03-01T03:28:19;102691.28;;;5.21;55.57
20942;BME280;10630;53.734;10.282;2023-03-01T03:30:46;102689.44;;;5.55;55.47
20942;BME280;10630;53.734;10.282;2023-03-01T03:33:14;102691.13;;;5.41;55.28
20942;BME280;10630;53.734;10.282;2023-03-01T03:35:43;102694.91;;;5.68;55.20
20942;BME280;10630;53.734;10.282;2023-03-01T03:38:10;102692.06;;;5.88;54.91
20942;BME280;10630;53.734;10.282;2023-03-01T03:40:46;102684.97;;;5.88;54.66
20942;BME280;10630;53.734;10.282;2023-03-01T03:43:14;102682.06;;;5.93;54.33
20942;BME280;10630;53.734;10.282;2023-03-01T03:45:43;102678.50;;;5.94;54.69
20942;BME280;10630;53.734;10.282;2023-03-01T03:48:13;102683.63;;;5.81;55.00
20942;BME280;10630;53.734;10.282;2023-03-01T03:50:47;102671.59;;;5.91;54.86
20942;BME280;10630;53.734;10.282;2023-03-01T03:53:16;102663.56;;;5.62;55.21
20942;BME280;10630;53.734;10.282;2023-03-01T03:55:43;102667.66;;;5.82;55.28
20942;BME280;10630;53.734;10.282;2023-03-01T03:58:10;102673.34;;;5.60;55.30
20942;BME280;10630;53.734;10.282;2023-03-01T04:00:38;102672.22;;;5.64;55.50
20942;BME280;10630;53.734;10.282;2023-03-01T04:03:06;102665.84;;;5.68;55.94
20942;BME280;10630;53.734;10.282;2023-03-01T04:05:33;102659.06;;;5.79;55.40
20942;BME280;10630;53.734;10.282;2023-03-01T04:08:00;102656.66;;;5.90;55.12
20942;BME280;10630;53.734;10.282;2023-03-01T04:10:28;102659.16;;;5.77;55.15
20942;BME280;10630;53.734;10.282;2023-03-01T04:12:57;102672.88;;;5.84;55.34
20942;BME280;10630;53.734;10.282;2023-03-01T04:15:24;102667.25;;;5.90;55.16
20942;BME280;10630;53.734;10.282;2023-03-01T04:17:52;102666.88;;;5.96;55.18
20942;BME280;10630;53.734;10.282;2023-03-01T04:20:20;102665.00;;;5.98;54.88
20942;BME280;10630;53.734;10.282;2023-03-01T04:25:18;102672.63;;;6.05;55.26
20942;BME280;10630;53.734;10.282;2023-03-01T04:27:46;102676.06;;;6.21;55.23
20942;BME280;10630;53.734;10.282;2023-03-01T04:30:13;102672.50;;;6.22;54.94
20942;BME280;10630;53.734;10.282;2023-03-01T04:32:41;102672.13;;;6.28;55.18
20942;BME280;10630;53.734;10.282;2023-03-01T04:35:08;102673.38;;;6.07;55.64
20942;BME280;10630;53.734;10.282;2023-03-01T04:37:34;102672.13;;;6.28;56.02
20942;BME280;10630;53.734;10.282;2023-03-01T04:40:02;102670.00;;;6.49;55.49
20942;BME280;10630;53.734;10.282;2023-03-01T04:42:39;102623.56;;;6.15;55.51
20942;BME280;10630;53.734;10.282;2023-03-01T04:45:08;102658.16;;;6.55;55.19
20942;BME280;10630;53.734;10.282;2023-03-01T04:47:40;102663.38;;;6.57;54.95
20942;BME280;10630;53.734;10.282;2023-03-01T04:50:07;102665.53;;;6.50;55.36
20942;BME280;10630;53.734;10.282;2023-03-01T04:52:34;102661.19;;;6.63;55.16
20942;BME280;10630;53.734;10.282;2023-03-01T04:55:01;102661.97;;;6.51;55.61
20942;BME280;10630;53.734;10.282;2023-03-01T04:57:28;102653.47;;;6.60;55.42
20942;BME280;10630;53.734;10.282;2023-03-01T04:59:56;102659.53;;;6.77;55.42
20942;BME280;10630;53.734;10.282;2023-03-01T05:02:23;102659.53;;;6.91;54.81
20942;BME280;10630;53.734;10.282;2023-03-01T05:04:50;102660.63;;;6.58;55.21
20942;BME280;10630;53.734;10.282;2023-03-01T05:07:18;102652.69;;;6.58;55.64
20942;BME280;10630;53.734;10.282;2023-03-01T05:09:47;102664.59;;;6.51;56.10
20942;BME280;10630;53.734;10.282;2023-03-01T05:12:21;102664.59;;;6.94;56.04
20942;BME280;10630;53.734;10.282;2023-03-01T05:14:48;102659.66;;;7.17;55.15
20942;BME280;10630;53.734;10.282;2023-03-01T05:17:15;102653.09;;;7.37;55.00
20942;BME280;10630;53.734;10.282;2023-03-01T05:19:42;102655.47;;;7.42;54.44
20942;BME280;10630;53.734;10.282;2023-03-01T05:22:09;102656.00;;;7.47;54.21
20942;BME280;10630;53.734;10.282;2023-03-01T05:24:38;102655.16;;;7.47;54.04
20942;BME280;10630;53.734;10.282;2023-03-01T05:27:05;102656.22;;;7.44;54.05
20942;BME280;10630;53.734;10.282;2023-03-01T05:29:33;102658.19;;;6.99;54.19
20942;BME280;10630;53.734;10.282;2023-03-01T05:32:02;102650.41;;;7.10;55.09
20942;BME280;10630;53.734;10.282;2023-03-01T05:34:30;102645.22;;;7.08;55.42
20942;BME280;10630;53.734;10.282;2023-03-01T05:36:57;102647.19;;;7.19;55.52
20942;BME280;10630;53.734;10.282;2023-03-01T05:39:25;102634.72;;;7.49;54.86
20942;BME280;10630;53.734;10.282;2023-03-01T05:41:53;102637.13;;;7.39;54.69
20942;BME280;10630;53.734;10.282;2023-03-01T05:44:21;102629.84;;;7.28;54.56
20942;BME280;10630;53.734;10.282;2023-03-01T05:46:48;102633.78;;;7.08;54.63
20942;BME280;10630;53.734;10.282;2023-03-01T05:49:15;102628.94;;;7.15;54.58
20942;BME280;10630;53.734;10.282;2023-03-01T05:51:43;102631.13;;;7.22;54.79
20942;BME280;10630;53.734;10.282;2023-03-01T05:54:13;102633.53;;;7.25;54.94
20942;BME280;10630;53.734;10.282;2023-03-01T05:56:40;102632.59;;;7.26;54.76
20942;BME280;10630;53.734;10.282;2023-03-01T05:59:06;102633.38;;;7.28;54.85
20942;BME280;10630;53.734;10.282;2023-03-01T06:01:33;102632.84;;;7.36;55.08
20942;BME280;10630;53.734;10.282;2023-03-01T06:04:01;102638.06;;;7.38;54.62
20942;BME280;10630;53.734;10.282;2023-03-01T06:06:28;102630.53;;;7.32;54.31
20942;BME280;10630;53.734;10.282;2023-03-01T06:08:56;102640.63;;;6.09;55.42
20942;BME280;10630;53.734;10.282;2023-03-01T06:11:22;102629.16;;;6.68;58.38
20942;BME280;10630;53.734;10.282;2023-03-01T06:13:49;102624.53;;;7.01;57.34
20942;BME280;10630;53.734;10.282;2023-03-01T06:16:16;102621.50;;;6.49;57.63
20942;BME280;10630;53.734;10.282;2023-03-01T06:18:42;102623.28;;;6.92;58.09
20942;BME280;10630;53.734;10.282;2023-03-01T06:21:09;102619.53;;;6.67;58.53
20942;BME280;10630;53.734;10.282;2023-03-01T06:23:36;102619.09;;;6.15;59.28
20942;BME280;10630;53.734;10.282;2023-03-01T06:26:06;102615.28;;;6.93;60.45
20942;BME280;10630;53.734;10.282;2023-03-01T06:28:35;102624.53;;;6.86;58.47
20942;BME280;10630;53.734;10.282;2023-03-01T06:31:02;102626.81;;;6.78;60.18
20942;BME280;10630;53.734;10.282;2023-03-01T06:33:29;102625.91;;;7.48;59.66
20942;BME280;10630;53.734;10.282;2023-03-01T06:35:55;102635.44;;;7.78;57.97
20942;BME280;10630;53.734;10.282;2023-03-01T06:38:23;102625.59;;;7.80;57.13
20942;BME280;10630;53.734;10.282;2023-03-01T06:40:54;102630.97;;;8.06;56.72
20942;BME280;10630;53.734;10.282;2023-03-01T06:43:22;102638.41;;;8.14;56.00
20942;BME280;10630;53.734;10.282;2023-03-01T06:45:50;102641.41;;;8.35;55.97
20942;BME280;10630;53.734;10.282;2023-03-01T06:48:17;102638.47;;;8.52;55.67
20942;BME280;10630;53.734;10.282;2023-03-01T06:50:44;102645.63;;;8.24;55.17
20942;BME280;10630;53.734;10.282;2023-03-01T06:53:11;102648.03;;;8.55;55.65
20942;BME280;10630;53.734;10.282;2023-03-01T06:55:38;102656.47;;;8.34;55.61
20942;BME280;10630;53.734;10.282;2023-03-01T06:58:05;102644.94;;;8.61;55.69
20942;BME280;10630;53.734;10.282;2023-03-01T07:00:32;102643.75;;;8.78;55.37
20942;BME280;10630;53.734;10.282;2023-03-01T07:02:59;102643.50;;;9.07;55.16
20942;BME280;10630;53.734;10.282;2023-03-01T07:05:26;102639.63;;;8.74;55.19
20942;BME280;10630;53.734;10.282;2023-03-01T07:07:53;102637.78;;;8.87;55.35
20942;BME280;10630;53.734;10.282;2023-03-01T07:10:20;102645.44;;;8.66;55.83
20942;BME280;10630;53.734;10.282;2023-03-01T07:12:47;102639.53;;;9.13;55.70
20942;BME280;10630;53.734;10.282;2023-03-01T07:15:14;102635.16;;;9.25;55.11
20942;BME280;10630;53.734;10.282;2023-03-01T07:17:41;102630.66;;;9.38;54.68
20942;BME280;10630;53.734;10.282;2023-03-01T07:20:08;102635.59;;;9.18;55.49
20942;BME280;10630;53.734;10.282;2023-03-01T07:22:35;102632.94;;;9.18;55.23
20942;BME280;10630;53.734;10.282;2023-03-01T07:25:02;102622.31;;;8.55;56.41
20942;BME280;10630;53.734;10.282;2023-03-01T07:27:29;102620.59;;;8.16;57.77
20942;BME280;10630;53.734;10.282;2023-03-01T07:29:56;102623.06;;;7.24;60.61
20942;BME280;10630;53.734;10.282;2023-03-01T07:32:23;102622.44;;;8.01;61.19
20942;BME280;10630;53.734;10.282;2023-03-01T07:34:50;102621.41;;;7.90;61.03
20942;BME280;10630;53.734;10.282;2023-03-01T07:37:18;102628.50;;;7.63;61.76
20942;BME280;10630;53.734;10.282;2023-03-01T07:39:47;102624.50;;;8.23;60.35
20942;BME280;10630;53.734;10.282;2023-03-01T07:42:14;102623.88;;;7.66;60.85
20942;BME280;10630;53.734;10.282;2023-03-01T07:44:41;102625.84;;;8.03;61.60
20942;BME280;10630;53.734;10.282;2023-03-01T07:47:09;102625.78;;;7.64;62.03
20942;BME280;10630;53.734;10.282;2023-03-01T07:49:36;102628.66;;;7.74;61.92
20942;BME280;10630;53.734;10.282;2023-03-01T07:52:03;102622.78;;;8.09;62.10
20942;BME280;10630;53.734;10.282;2023-03-01T07:54:30;102620.38;;;8.32;61.35
20942;BME280;10630;53.734;10.282;2023-03-01T07:56:57;102622.31;;;8.30;60.72
20942;BME280;10630;53.734;10.282;2023-03-01T07:59:24;102624.91;;;8.04;61.73
20942;BME280;10630;53.734;10.282;2023-03-01T08:01:56;102630.91;;;8.72;60.65
20942;BME280;10630;53.734;10.282;2023-03-01T08:04:24;102629.31;;;8.82;58.92
20942;BME280;10630;53.734;10.282;2023-03-01T08:06:54;102632.28;;;8.26;60.27
20942;BME280;10630;53.734;10.282;2023-03-01T08:09:21;102638.66;;;8.75;61.49
20942;BME280;10630;53.734;10.282;2023-03-01T08:11:49;102631.03;;;8.70;60.72
20942;BME280;10630;53.734;10.282;2023-03-01T08:14:16;102629.16;;;9.10;59.86
20942;BME280;10630;53.734;10.282;2023-03-01T08:16:43;102627.13;;;7.97;62.07
20942;BME280;10630;53.734;10.282;2023-03-01T08:19:10;102635.69;;;8.67;63.09
20942;BME280;10630;53.734;10.282;2023-03-01T08:21:38;102629.84;;;9.25;60.34
20942;BME280;10630;53.734;10.282;2023-03-01T08:24:05;102642.94;;;9.15;60.76
20942;BME280;10630;53.734;10.282;2023-03-01T08:26:33;102635.91;;;9.27;60.06
20942;BME280;10630;53.734;10.282;2023-03-01T08:29:00;102636.88;;;9.50;59.67
20942;BME280;10630;53.734;10.282;2023-03-01T08:31:29;102632.28;;;9.52;59.22
20942;BME280;10630;53.734;10.282;2023-03-01T08:33:59;102640.53;;;9.12;58.42
20942;BME280;10630;53.734;10.282;2023-03-01T08:36:29;102632.91;;;9.31;58.75
20942;BME280;10630;53.734;10.282;2023-03-01T08:38:57;102641.31;;;8.75;60.34
20942;BME280;10630;53.734;10.282;2023-03-01T08:41:26;102637.22;;;9.08;59.73
20942;BME280;10630;53.734;10.282;2023-03-01T08:43:52;102637.25;;;9.81;59.74
20942;BME280;10630;53.734;10.282;2023-03-01T08:46:26;102635.59;;;9.18;59.27
20942;BME280;10630;53.734;10.282;2023-03-01T08:48:53;102636.13;;;9.72;59.91
20942;BME280;10630;53.734;10.282;2023-03-01T08:51:22;102630.81;;;9.48;60.00
20942;BME280;10630;53.734;10.282;2023-03-01T08:53:49;102642.19;;;9.74;59.74
20942;BME280;10630;53.734;10.282;2023-03-01T08:56:17;102641.44;;;9.72;59.53
20942;BME280;10630;53.734;10.282;2023-03-01T08:58:48;102636.88;;;10.45;58.32
20942;BME280;10630;53.734;10.282;2023-03-01T09:01:16;102640.09;;;10.02;57.85
20942;BME280;10630;53.734;10.282;2023-03-01T09:03:43;102636.59;;;10.49;58.46
20942;BME280;10630;53.734;10.282;2023-03-01T09:06:10;102646.09;;;8.70;60.21
20942;BME280;10630;53.734;10.282;2023-03-01T09:08:38;102639.91;;;10.17;59.95
20942;BME280;10630;53.734;10.282;2023-03-01T09:11:06;102647.44;;;9.63;60.92
20942;BME280;10630;53.734;10.282;2023-03-01T09:13:33;102637.34;;;10.73;60.03
20942;BME280;10630;53.734;10.282;2023-03-01T09:16:01;102630.34;;;11.71;56.03
20942;BME280;10630;53.734;10.282;2023-03-01T09:18:28;102634.47;;;10.18;58.06
20942;BME280;10630;53.734;10.282;2023-03-01T09:21:05;102642.81;;;9.54;61.19
20942;BME280;10630;53.734;10.282;2023-03-01T09:23:36;102632.50;;;10.67;59.94
20942;BME280;10630;53.734;10.282;2023-03-01T09:26:09;102635.50;;;10.51;58.52
20942;BME280;10630;53.734;10.282;2023-03-01T09:28:36;102635.41;;;10.87;56.58
20942;BME280;10630;53.734;10.282;2023-03-01T09:31:03;102630.72;;;11.34;55.57
20942;BME280;10630;53.734;10.282;2023-03-01T09:33:30;102627.19;;;10.67;57.95
20942;BME280;10630;53.734;10.282;2023-03-01T09:38:24;102639.69;;;10.31;58.22
20942;BME280;10630;53.734;10.282;2023-03-01T09:40:52;102636.88;;;9.74;60.00
20942;BME280;10630;53.734;10.282;2023-03-01T09:46:05;102625.97;;;10.49;59.11
20942;BME280;10630;53.734;10.282;2023-03-01T09:49:18;102639.69;;;10.31;58.86
20942;BME280;10630;53.734;10.282;2023-03-01T09:51:29;102646.38;;;9.90;59.63
20942;BME280;10630;53.734;10.282;2023-03-01T09:53:57;102644.47;;;10.39;60.75
20942;BME280;10630;53.734;10.282;2023-03-01T09:56:40;102646.56;;;9.75;60.71
20942;BME280;10630;53.734;10.282;2023-03-01T10:01:52;102641.22;;;10.58;60.78
20942;BME280;10630;53.734;10.282;2023-03-01T10:09:42;102638.50;;;10.35;61.89
20942;BME280;10630;53.734;10.282;2023-03-01T10:12:16;102638.91;;;9.46;66.24
20942;BME280;10630;53.734;10.282;2023-03-01T10:14:58;102643.03;;;9.50;69.83
20942;BME280;10630;53.734;10.282;2023-03-01T10:17:43;102642.53;;;9.45;69.90
20942;BME280;10630;53.734;10.282;2023-03-01T10:20:24;102632.94;;;10.38;68.03
20942;BME280;10630;53.734;10.282;2023-03-01T10:22:52;102631.03;;;11.85;62.20
20942;BME280;10630;53.734;10.282;2023-03-01T10:28:20;102637.22;;;10.86;65.78
20942;BME280;10630;53.734;10.282;2023-03-01T10:30:50;102634.72;;;9.79;66.66
20942;BME280;10630;53.734;10.282;2023-03-01T10:33:22;102626.81;;;10.02;66.43
20942;BME280;10630;53.734;10.282;2023-03-01T10:35:50;102622.00;;;11.44;64.32
20942;BME280;10630;53.734;10.282;2023-03-01T10:38:19;102623.94;;;11.30;60.56
20942;BME280;10630;53.734;10.282;2023-03-01T10:40:50;102621.56;;;11.16;61.47
20942;BME280;10630;53.734;10.282;2023-03-01T10:43:17;102613.78;;;11.24;61.15
20942;BME280;10630;53.734;10.282;2023-03-01T10:45:45;102615.66;;;10.44;62.86
20942;BME280;10630;53.734;10.282;2023-03-01T10:48:19;102612.31;;;11.31;61.05
20942;BME280;10630;53.734;10.282;2023-03-01T10:50:49;102606.28;;;11.18;59.66
20942;BME280;10630;53.734;10.282;2023-03-01T10:53:24;102604.38;;;12.27;57.28
20942;BME280;10630;53.734;10.282;2023-03-01T10:56:12;102611.56;;;11.73;57.04
20942;BME280;10630;53.734;10.282;2023-03-01T11:01:29;102602.16;;;12.32;55.07
20942;BME280;10630;53.734;10.282;2023-03-01T11:06:42;102597.00;;;13.32;53.52
20942;BME280;10630;53.734;10.282;2023-03-01T11:09:17;102603.84;;;12.64;53.65
20942;BME280;10630;53.734;10.282;2023-03-01T11:11:44;102597.50;;;13.26;52.92
20942;BME280;10630;53.734;10.282;2023-03-01T11:14:15;102595.78;;;12.02;53.50
20942;BME280;10630;53.734;10.282;2023-03-01T11:17:11;102592.94;;;12.15;55.23
20942;BME280;10630;53.734;10.282;2023-03-01T11:19:40;102586.72;;;13.86;53.10
20942;BME280;10630;53.734;10.282;2023-03-01T11:22:16;102589.22;;;13.19;52.61
20942;BME280;10630;53.734;10.282;2023-03-01T11:24:47;102585.28;;;13.23;51.80
20942;BME280;10630;53.734;10.282;2023-03-01T11:27:36;102588.16;;;12.81;51.43
20942;BME280;10630;53.734;10.282;2023-03-01T11:30:07;102585.34;;;12.21;51.75
20942;BME280;10630;53.734;10.282;2023-03-01T11:32:40;102586.13;;;13.24;50.05
20942;BME280;10630;53.734;10.282;2023-03-01T11:35:27;102581.50;;;12.65;50.64
20942;BME280;10630;53.734;10.282;2023-03-01T11:40:40;102572.13;;;12.40;48.62
20942;BME280;10630;53.734;10.282;2023-03-01T11:51:23;102572.56;;;12.96;50.32
20942;BME280;10630;53.734;10.282;2023-03-01T11:54:01;102570.13;;;11.90;51.93
20942;BME280;10630;53.734;10.282;2023-03-01T12:04:19;102576.50;;;11.78;52.80
20942;BME280;10630;53.734;10.282;2023-03-01T12:12:32;102578.72;;;12.15;49.09
20942;BME280;10630;53.734;10.282;2023-03-01T12:20:20;102567.16;;;12.66;50.15
20942;BME280;10630;53.734;10.282;2023-03-01T12:25:47;102556.50;;;12.35;50.74
20942;BME280;10630;53.734;10.282;2023-03-01T12:31:11;102548.09;;;13.89;48.53
20942;BME280;10630;53.734;10.282;2023-03-01T12:33:53;102555.44;;;11.75;50.53
20942;BME280;10630;53.734;10.282;2023-03-01T12:39:23;102542.59;;;12.42;50.04
20942;BME280;10630;53.734;10.282;2023-03-01T12:42:04;102533.03;;;12.80;50.25
20942;BME280;10630;53.734;10.282;2023-03-01T12:47:21;102527.09;;;12.26;52.43
20942;BME280;10630;53.734;10.282;2023-03-01T12:49:57;102524.53;;;12.24;51.18
20942;BME280;10630;53.734;10.282;2023-03-01T12:52:38;102526.44;;;12.94;50.86
20942;BME280;10630;53.734;10.282;2023-03-01T12:55:23;102522.31;;;12.60;50.19
20942;BME280;10630;53.734;10.282;2023-03-01T12:57:56;102515.69;;;12.64;52.43
20942;BME280;10630;53.734;10.282;2023-03-01T13:00:30;102522.16;;;12.21;51.88
20942;BME280;10630;53.734;10.282;2023-03-01T13:08:33;102515.09;;;12.51;52.31
20942;BME280;10630;53.734;10.282;2023-03-01T13:11:03;102516.88;;;12.10;51.73
20942;BME280;10630;53.734;10.282;2023-03-01T13:13:31;102500.84;;;13.21;50.40
20942;BME280;10630;53.734;10.282;2023-03-01T13:15:58;102512.84;;;12.56;48.53
20942;BME280;10630;53.734;10.282;2023-03-01T13:18:45;102508.88;;;12.50;49.13
20942;BME280;10630;53.734;10.282;2023-03-01T13:21:11;102509.22;;;12.77;48.44
20942;BME280;10630;53.734;10.282;2023-03-01T13:23:38;102498.72;;;13.64;47.58
20942;BME280;10630;53.734;10.282;2023-03-01T13:26:10;102492.22;;;12.17;48.11
20942;BME280;10630;53.734;10.282;2023-03-01T13:31:09;102498.81;;;12.23;50.27
20942;BME280;10630;53.734;10.282;2023-03-01T13:33:40;102487.63;;;11.98;50.74
20942;BME280;10630;53.734;10.282;2023-03-01T13:36:08;102488.88;;;13.05;50.14
20942;BME280;10630;53.734;10.282;2023-03-01T13:38:48;102485.16;;;12.57;49.25
20942;BME280;10630;53.734;10.282;2023-03-01T13:49:26;102473.53;;;13.17;51.51
20942;BME280;10630;53.734;10.282;2023-03-01T13:52:06;102471.91;;;12.46;51.53
20942;BME280;10630;53.734;10.282;2023-03-01T13:54:33;102475.47;;;12.56;50.97
20942;BME280;10630;53.734;10.282;2023-03-01T13:57:00;102468.06;;;12.89;52.83
20942;BME280;10630;53.734;10.282;2023-03-01T13:59:27;102477.47;;;12.23;52.07
20942;BME280;10630;53.734;10.282;2023-03-01T14:01:57;102468.00;;;11.88;53.29
20942;BME280;10630;53.734;10.282;2023-03-01T14:04:28;102468.81;;;12.41;55.25
20942;BME280;10630;53.734;10.282;2023-03-01T14:07:16;102467.50;;;13.35;53.09
20942;BME280;10630;53.734;10.282;2023-03-01T14:09:44;102461.59;;;12.82;51.87
20942;BME280;10630;53.734;10.282;2023-03-01T14:19:35;102453.53;;;12.53;48.22
20942;BME280;10630;53.734;10.282;2023-03-01T14:24:30;102454.78;;;11.34;50.19
20942;BME280;10630;53.734;10.282;2023-03-01T14:27:03;102447.66;;;12.88;48.76
20942;BME280;10630;53.734;10.282;2023-03-01T14:29:35;102451.94;;;11.99;48.87
20942;BME280;10630;53.734;10.282;2023-03-01T14:32:18;102450.88;;;11.91;48.23